sensor_id;sensor_type;location;lat;lon;timestamp;P1;durP1;ratioP1;P2;durP2;ratioP2
20982;SDS011;10650;51.528;6.748;2023-06-10T00:01:10;8.32;;;7.53;;
20982;SDS011;10650;51.528;6.748;2023-06-10T00:03:38;8.20;;;7.40;;
20982;SDS011;10650;51.528;6.748;2023-06-10T00:06:07;8.45;;;7.70;;
20982;SDS011;10650;51.528;6.748;2023-06-10T00:08:35;8.82;;;7.95;;
20982;SDS011;10650;51.528;6.748;2023-06-10T00:11:03;8.73;;;7.80;;
20982;SDS011;10650;51.528;6.748;2023-06-10T00:13:31;9.38;;;7.35;;
20982;SDS011;10650;51.528;6.748;2023-06-10T00:16:01;8.57;;;7.80;;
20982;SDS011;10650;51.528;6.748;2023-06-10T00:18:29;8.90;;;7.80;;
20982;SDS011;10650;51.528;6.748;2023-06-10T00:20:58;9.07;;;8.00;;
20982;SDS011;10650;51.528;6.748;2023-06-10T00:23:30;9.20;;;8.32;;
20982;SDS011;10650;51.528;6.748;2023-06-10T00:26:04;9.40;;;8.50;;
20982;SDS011;10650;51.528;6.748;2023-06-10T00:28:32;8.57;;;7.70;;
20982;SDS011;10650;51.528;6.748;2023-06-10T00:31:02;9.23;;;8.32;;
20982;SDS011;10650;51.528;6.748;2023-06-10T00:33:30;9.07;;;8.07;;
20982;SDS011;10650;51.528;6.748;2023-06-10T00:35:58;13.18;;;8.18;;
20982;SDS011;10650;51.528;6.748;2023-06-10T00:38:26;8.57;;;7.72;;
20982;SDS011;10650;51.528;6.748;2023-06-10T00:40:54;9.25;;;8.35;;
20982;SDS011;10650;51.528;6.748;2023-06-10T00:43:22;8.80;;;7.90;;
20982;SDS011;10650;51.528;6.748;2023-06-10T00:45:50;10.45;;;7.97;;
20982;SDS011;10650;51.528;6.748;2023-06-10T00:48:20;10.27;;;8.57;;
20982;SDS011;10650;51.528;6.748;2023-06-10T00:50:51;9.75;;;8.75;;
20982;SDS011;10650;51.528;6.748;2023-06-10T00:53:20;8.95;;;8.05;;
20982;SDS011;10650;51.528;6.748;2023-06-10T00:55:48;8.80;;;8.00;;
20982;SDS011;10650;51.528;6.748;2023-06-10T00:58:17;9.50;;;8.13;;
20982;SDS011;10650;51.528;6.748;2023-06-10T01:00:45;8.93;;;8.07;;
20982;SDS011;10650;51.528;6.748;2023-06-10T01:03:13;9.60;;;8.30;;
20982;SDS011;10650;51.528;6.748;2023-06-10T01:05:45;8.93;;;8.02;;
20982;SDS011;10650;51.528;6.748;2023-06-10T01:08:25;9.27;;;8.38;;
20982;SDS011;10650;51.528;6.748;2023-06-10T01:11:01;9.63;;;8.05;;
20982;SDS011;10650;51.528;6.748;2023-06-10T01:13:35;9.45;;;8.52;;
20982;SDS011;10650;51.528;6.748;2023-06-10T01:18:35;9.27;;;8.38;;
20982;SDS011;10650;51.528;6.748;2023-06-10T01:21:07;10.15;;;9.25;;
20982;SDS011;10650;51.528;6.748;2023-06-10T01:23:37;9.45;;;8.48;;
20982;SDS011;10650;51.528;6.748;2023-06-10T01:26:06;9.50;;;8.60;;
20982;SDS011;10650;51.528;6.748;2023-06-10T01:28:38;9.90;;;8.88;;
20982;SDS011;10650;51.528;6.748;2023-06-10T01:31:13;11.20;;;10.10;;
20982;SDS011;10650;51.528;6.748;2023-06-10T01:33:49;10.05;;;9.05;;
20982;SDS011;10650;51.528;6.748;2023-06-10T01:36:19;9.27;;;8.48;;
20982;SDS011;10650;51.528;6.748;2023-06-10T01:38:50;10.45;;;9.32;;
20982;SDS011;10650;51.528;6.748;2023-06-10T01:41:21;10.30;;;9.30;;
20982;SDS011;10650;51.528;6.748;2023-06-10T01:43:49;10.65;;;9.50;;
20982;SDS011;10650;51.528;6.748;2023-06-10T01:46:17;10.90;;;9.90;;
20982;SDS011;10650;51.528;6.748;2023-06-10T01:48:47;11.02;;;9.93;;
20982;SDS011;10650;51.528;6.748;2023-06-10T01:51:15;11.15;;;9.95;;
20982;SDS011;10650;51.528;6.748;2023-06-10T01:53:43;11.73;;;10.63;;
20982;SDS011;10650;51.528;6.748;2023-06-10T01:56:13;12.95;;;10.85;;
20982;SDS011;10650;51.528;6.748;2023-06-10T02:01:12;11.63;;;10.50;;
20982;SDS011;10650;51.528;6.748;2023-06-10T02:03:40;11.25;;;9.98;;
20982;SDS011;10650;51.528;6.748;2023-06-10T02:06:08;11.15;;;10.07;;
20982;SDS011;10650;51.528;6.748;2023-06-10T02:08:36;12.20;;;10.55;;
20982;SDS011;10650;51.528;6.748;2023-06-10T02:11:04;11.40;;;10.30;;
20982;SDS011;10650;51.528;6.748;2023-06-10T02:13:34;12.40;;;11.20;;
20982;SDS011;10650;51.528;6.748;2023-06-10T02:16:02;11.55;;;10.32;;
20982;SDS011;10650;51.528;6.748;2023-06-10T02:18:32;12.18;;;11.00;;
20982;SDS011;10650;51.528;6.748;2023-06-10T02:21:00;11.32;;;10.32;;
20982;SDS011;10650;51.528;6.748;2023-06-10T02:23:28;12.88;;;11.57;;
20982;SDS011;10650;51.528;6.748;2023-06-10T02:25:56;11.80;;;10.60;;
20982;SDS011;10650;51.528;6.748;2023-06-10T02:28:24;11.55;;;10.05;;
20982;SDS011;10650;51.528;6.748;2023-06-10T02:30:53;13.48;;;11.65;;
20982;SDS011;10650;51.528;6.748;2023-06-10T02:33:23;11.85;;;10.75;;
20982;SDS011;10650;51.528;6.748;2023-06-10T02:35:51;11.40;;;10.32;;
20982;SDS011;10650;51.528;6.748;2023-06-10T02:38:19;12.18;;;10.98;;
20982;SDS011;10650;51.528;6.748;2023-06-10T02:40:47;14.02;;;11.23;;
20982;SDS011;10650;51.528;6.748;2023-06-10T02:43:15;13.48;;;12.18;;
20982;SDS011;10650;51.528;6.748;2023-06-10T02:45:43;14.32;;;12.93;;
20982;SDS011;10650;51.528;6.748;2023-06-10T02:48:12;13.43;;;12.23;;
20982;SDS011;10650;51.528;6.748;2023-06-10T02:50:40;12.75;;;11.55;;
20982;SDS011;10650;51.528;6.748;2023-06-10T02:53:08;12.85;;;11.68;;
20982;SDS011;10650;51.528;6.748;2023-06-10T02:55:36;13.38;;;12.05;;
20982;SDS011;10650;51.528;6.748;2023-06-10T02:58:04;14.93;;;13.07;;
20982;SDS011;10650;51.528;6.748;2023-06-10T03:00:33;13.00;;;11.70;;
20982;SDS011;10650;51.528;6.748;2023-06-10T03:03:02;12.70;;;11.40;;
20982;SDS011;10650;51.528;6.748;2023-06-10T03:05:33;13.93;;;12.52;;
20982;SDS011;10650;51.528;6.748;2023-06-10T03:08:01;13.35;;;12.00;;
20982;SDS011;10650;51.528;6.748;2023-06-10T03:10:29;15.43;;;12.77;;
20982;SDS011;10650;51.528;6.748;2023-06-10T03:12:59;13.75;;;12.45;;
20982;SDS011;10650;51.528;6.748;2023-06-10T03:15:27;13.10;;;11.90;;
20982;SDS011;10650;51.528;6.748;2023-06-10T03:17:59;14.00;;;12.60;;
20982;SDS011;10650;51.528;6.748;2023-06-10T03:20:28;14.18;;;12.85;;
20982;SDS011;10650;51.528;6.748;2023-06-10T03:22:58;15.20;;;12.57;;
20982;SDS011;10650;51.528;6.748;2023-06-10T03:25:26;13.60;;;12.18;;
20982;SDS011;10650;51.528;6.748;2023-06-10T03:27:54;13.82;;;12.45;;
20982;SDS011;10650;51.528;6.748;2023-06-10T03:30:22;13.55;;;12.10;;
20982;SDS011;10650;51.528;6.748;2023-06-10T03:32:51;11.93;;;10.90;;
20982;SDS011;10650;51.528;6.748;2023-06-10T03:35:19;12.65;;;11.30;;
20982;SDS011;10650;51.528;6.748;2023-06-10T03:37:47;13.48;;;12.07;;
20982;SDS011;10650;51.528;6.748;2023-06-10T03:40:17;11.23;;;10.20;;
20982;SDS011;10650;51.528;6.748;2023-06-10T03:42:44;12.93;;;11.45;;
20982;SDS011;10650;51.528;6.748;2023-06-10T03:45:12;12.98;;;11.25;;
20982;SDS011;10650;51.528;6.748;2023-06-10T03:47:40;12.43;;;11.23;;
20982;SDS011;10650;51.528;6.748;2023-06-10T03:50:09;12.25;;;11.05;;
20982;SDS011;10650;51.528;6.748;2023-06-10T03:52:37;12.88;;;10.77;;
20982;SDS011;10650;51.528;6.748;2023-06-10T03:55:06;11.57;;;10.45;;
20982;SDS011;10650;51.528;6.748;2023-06-10T03:57:41;12.10;;;10.77;;
20982;SDS011;10650;51.528;6.748;2023-06-10T04:00:09;12.65;;;10.52;;
20982;SDS011;10650;51.528;6.748;2023-06-10T04:02:38;11.45;;;10.25;;
20982;SDS011;10650;51.528;6.748;2023-06-10T04:05:12;12.02;;;10.82;;
20982;SDS011;10650;51.528;6.748;2023-06-10T04:07:41;13.73;;;11.10;;
20982;SDS011;10650;51.528;6.748;2023-06-10T04:10:10;12.15;;;10.95;;
20982;SDS011;10650;51.528;6.748;2023-06-10T04:12:38;11.27;;;10.02;;
20982;SDS011;10650;51.528;6.748;2023-06-10T04:15:09;12.38;;;11.18;;
20982;SDS011;10650;51.528;6.748;2023-06-10T04:17:37;10.70;;;9.68;;
20982;SDS011;10650;51.528;6.748;2023-06-10T04:20:06;11.63;;;10.45;;
20982;SDS011;10650;51.528;6.748;2023-06-10T04:22:36;12.02;;;9.93;;
20982;SDS011;10650;51.528;6.748;2023-06-10T04:25:04;11.45;;;10.35;;
20982;SDS011;10650;51.528;6.748;2023-06-10T04:27:34;11.98;;;10.68;;
20982;SDS011;10650;51.528;6.748;2023-06-10T04:30:02;11.52;;;10.20;;
20982;SDS011;10650;51.528;6.748;2023-06-10T04:32:32;9.80;;;8.80;;
20982;SDS011;10650;51.528;6.748;2023-06-10T04:35:00;14.70;;;12.35;;
20982;SDS011;10650;51.528;6.748;2023-06-10T04:37:28;11.65;;;10.45;;
20982;SDS011;10650;51.528;6.748;2023-06-10T04:39:56;10.52;;;9.02;;
20982;SDS011;10650;51.528;6.748;2023-06-10T04:42:25;10.48;;;9.38;;
20982;SDS011;10650;51.528;6.748;2023-06-10T04:44:53;9.73;;;8.68;;
20982;SDS011;10650;51.528;6.748;2023-06-10T04:47:21;12.07;;;10.10;;
20982;SDS011;10650;51.528;6.748;2023-06-10T04:49:50;10.38;;;9.38;;
20982;SDS011;10650;51.528;6.748;2023-06-10T04:52:18;10.95;;;8.73;;
20982;SDS011;10650;51.528;6.748;2023-06-10T04:54:47;9.60;;;8.70;;
20982;SDS011;10650;51.528;6.748;2023-06-10T04:57:15;10.88;;;9.00;;
20982;SDS011;10650;51.528;6.748;2023-06-10T04:59:43;12.10;;;8.15;;
20982;SDS011;10650;51.528;6.748;2023-06-10T05:02:11;10.10;;;9.10;;
20982;SDS011;10650;51.528;6.748;2023-06-10T05:04:39;9.50;;;8.60;;
20982;SDS011;10650;51.528;6.748;2023-06-10T05:07:08;9.63;;;8.38;;
20982;SDS011;10650;51.528;6.748;2023-06-10T05:09:36;9.82;;;8.80;;
20982;SDS011;10650;51.528;6.748;2023-06-10T05:12:04;9.95;;;8.10;;
20982;SDS011;10650;51.528;6.748;2023-06-10T05:14:33;12.02;;;8.57;;
20982;SDS011;10650;51.528;6.748;2023-06-10T05:17:01;9.57;;;8.07;;
20982;SDS011;10650;51.528;6.748;2023-06-10T05:19:29;10.15;;;8.13;;
20982;SDS011;10650;51.528;6.748;2023-06-10T05:21:57;9.20;;;8.00;;
20982;SDS011;10650;51.528;6.748;2023-06-10T05:24:26;9.75;;;7.93;;
20982;SDS011;10650;51.528;6.748;2023-06-10T05:26:54;8.80;;;8.00;;
20982;SDS011;10650;51.528;6.748;2023-06-10T05:29:22;11.05;;;7.75;;
20982;SDS011;10650;51.528;6.748;2023-06-10T05:31:50;9.20;;;7.82;;
20982;SDS011;10650;51.528;6.748;2023-06-10T05:34:18;8.20;;;7.40;;
20982;SDS011;10650;51.528;6.748;2023-06-10T05:36:46;8.60;;;7.70;;
20982;SDS011;10650;51.528;6.748;2023-06-10T05:39:14;8.90;;;7.40;;
20982;SDS011;10650;51.528;6.748;2023-06-10T05:41:43;9.48;;;6.88;;
20982;SDS011;10650;51.528;6.748;2023-06-10T05:44:11;9.50;;;7.80;;
20982;SDS011;10650;51.528;6.748;2023-06-10T05:46:39;8.77;;;7.63;;
20982;SDS011;10650;51.528;6.748;2023-06-10T05:49:07;8.88;;;7.18;;
20982;SDS011;10650;51.528;6.748;2023-06-10T05:51:35;8.10;;;6.80;;
20982;SDS011;10650;51.528;6.748;2023-06-10T05:54:04;11.40;;;7.38;;
20982;SDS011;10650;51.528;6.748;2023-06-10T05:56:31;8.23;;;7.18;;
20982;SDS011;10650;51.528;6.748;2023-06-10T05:59:01;7.47;;;6.72;;
20982;SDS011;10650;51.528;6.748;2023-06-10T06:01:28;8.93;;;6.60;;
20982;SDS011;10650;51.528;6.748;2023-06-10T06:03:56;8.35;;;7.38;;
20982;SDS011;10650;51.528;6.748;2023-06-10T06:06:24;9.82;;;6.57;;
20982;SDS011;10650;51.528;6.748;2023-06-10T06:08:52;9.55;;;7.00;;
20982;SDS011;10650;51.528;6.748;2023-06-10T06:11:20;8.63;;;7.20;;
20982;SDS011;10650;51.528;6.748;2023-06-10T06:13:48;8.23;;;6.88;;
20982;SDS011;10650;51.528;6.748;2023-06-10T06:16:20;8.57;;;7.00;;
20982;SDS011;10650;51.528;6.748;2023-06-10T06:18:48;7.75;;;6.95;;
20982;SDS011;10650;51.528;6.748;2023-06-10T06:21:16;8.52;;;6.90;;
20982;SDS011;10650;51.528;6.748;2023-06-10T06:23:43;7.85;;;6.30;;
20982;SDS011;10650;51.528;6.748;2023-06-10T06:26:11;9.23;;;7.15;;
20982;SDS011;10650;51.528;6.748;2023-06-10T06:28:39;7.85;;;6.90;;
20982;SDS011;10650;51.528;6.748;2023-06-10T06:31:07;9.45;;;6.50;;
20982;SDS011;10650;51.528;6.748;2023-06-10T06:33:36;7.10;;;6.38;;
20982;SDS011;10650;51.528;6.748;2023-06-10T06:36:04;9.00;;;6.72;;
20982;SDS011;10650;51.528;6.748;2023-06-10T06:38:33;9.90;;;6.68;;
20982;SDS011;10650;51.528;6.748;2023-06-10T06:41:00;9.68;;;6.97;;
20982;SDS011;10650;51.528;6.748;2023-06-10T06:43:30;11.07;;;6.60;;
20982;SDS011;10650;51.528;6.748;2023-06-10T06:45:58;9.27;;;7.18;;
20982;SDS011;10650;51.528;6.748;2023-06-10T06:48:26;9.48;;;7.38;;
20982;SDS011;10650;51.528;6.748;2023-06-10T06:50:57;8.57;;;6.82;;
20982;SDS011;10650;51.528;6.748;2023-06-10T06:53:27;8.15;;;6.53;;
20982;SDS011;10650;51.528;6.748;2023-06-10T06:55:57;7.68;;;6.53;;
20982;SDS011;10650;51.528;6.748;2023-06-10T06:58:25;9.85;;;6.63;;
20982;SDS011;10650;51.528;6.748;2023-06-10T07:00:53;8.52;;;6.90;;
20982;SDS011;10650;51.528;6.748;2023-06-10T07:03:22;8.38;;;6.90;;
20982;SDS011;10650;51.528;6.748;2023-06-10T07:05:50;9.20;;;6.65;;
20982;SDS011;10650;51.528;6.748;2023-06-10T07:08:19;7.50;;;6.70;;
20982;SDS011;10650;51.528;6.748;2023-06-10T07:10:47;7.75;;;6.10;;
20982;SDS011;10650;51.528;6.748;2023-06-10T07:13:15;9.65;;;6.57;;
20982;SDS011;10650;51.528;6.748;2023-06-10T07:15:43;8.35;;;6.57;;
20982;SDS011;10650;51.528;6.748;2023-06-10T07:18:11;9.45;;;6.43;;
20982;SDS011;10650;51.528;6.748;2023-06-10T07:20:40;8.57;;;7.10;;
20982;SDS011;10650;51.528;6.748;2023-06-10T07:23:08;7.85;;;6.40;;
20982;SDS011;10650;51.528;6.748;2023-06-10T07:25:38;9.82;;;6.88;;
20982;SDS011;10650;51.528;6.748;2023-06-10T07:28:06;7.18;;;6.40;;
20982;SDS011;10650;51.528;6.748;2023-06-10T07:30:34;9.93;;;6.63;;
20982;SDS011;10650;51.528;6.748;2023-06-10T07:33:02;7.85;;;6.40;;
20982;SDS011;10650;51.528;6.748;2023-06-10T07:35:32;9.07;;;6.05;;
20982;SDS011;10650;51.528;6.748;2023-06-10T07:38:00;8.35;;;6.70;;
20982;SDS011;10650;51.528;6.748;2023-06-10T07:40:28;6.97;;;6.10;;
20982;SDS011;10650;51.528;6.748;2023-06-10T07:43:01;7.32;;;6.32;;
20982;SDS011;10650;51.528;6.748;2023-06-10T07:45:29;6.85;;;6.00;;
20982;SDS011;10650;51.528;6.748;2023-06-10T07:47:57;9.05;;;6.50;;
20982;SDS011;10650;51.528;6.748;2023-06-10T07:50:25;8.20;;;6.20;;
20982;SDS011;10650;51.528;6.748;2023-06-10T07:52:53;8.00;;;6.05;;
20982;SDS011;10650;51.528;6.748;2023-06-10T07:55:21;6.55;;;5.70;;
20982;SDS011;10650;51.528;6.748;2023-06-10T07:57:49;9.68;;;6.72;;
20982;SDS011;10650;51.528;6.748;2023-06-10T08:00:19;8.45;;;6.72;;
20982;SDS011;10650;51.528;6.748;2023-06-10T08:02:47;9.70;;;7.13;;
20982;SDS011;10650;51.528;6.748;2023-06-10T08:05:15;8.30;;;6.43;;
20982;SDS011;10650;51.528;6.748;2023-06-10T08:07:44;9.02;;;6.53;;
20982;SDS011;10650;51.528;6.748;2023-06-10T08:10:12;7.68;;;6.85;;
20982;SDS011;10650;51.528;6.748;2023-06-10T08:12:40;7.15;;;6.00;;
20982;SDS011;10650;51.528;6.748;2023-06-10T08:15:08;10.60;;;6.78;;
20982;SDS011;10650;51.528;6.748;2023-06-10T08:17:38;8.85;;;6.43;;
20982;SDS011;10650;51.528;6.748;2023-06-10T08:20:07;8.15;;;6.40;;
20982;SDS011;10650;51.528;6.748;2023-06-10T08:22:35;7.95;;;6.22;;
20982;SDS011;10650;51.528;6.748;2023-06-10T08:25:03;7.97;;;6.38;;
20982;SDS011;10650;51.528;6.748;2023-06-10T08:27:32;6.68;;;6.03;;
20982;SDS011;10650;51.528;6.748;2023-06-10T08:30:00;9.15;;;5.95;;
20982;SDS011;10650;51.528;6.748;2023-06-10T08:32:28;9.70;;;6.30;;
20982;SDS011;10650;51.528;6.748;2023-06-10T08:34:58;7.88;;;6.50;;
20982;SDS011;10650;51.528;6.748;2023-06-10T08:37:29;7.28;;;6.20;;
20982;SDS011;10650;51.528;6.748;2023-06-10T08:40:00;8.63;;;6.50;;
20982;SDS011;10650;51.528;6.748;2023-06-10T08:42:32;10.00;;;6.57;;
20982;SDS011;10650;51.528;6.748;2023-06-10T08:45:04;8.30;;;5.88;;
20982;SDS011;10650;51.528;6.748;2023-06-10T08:47:37;8.50;;;6.10;;
20982;SDS011;10650;51.528;6.748;2023-06-10T08:50:10;6.80;;;6.10;;
20982;SDS011;10650;51.528;6.748;2023-06-10T08:52:40;8.35;;;6.80;;
20982;SDS011;10650;51.528;6.748;2023-06-10T08:55:12;7.95;;;6.32;;
20982;SDS011;10650;51.528;6.748;2023-06-10T08:57:46;6.97;;;6.28;;
20982;SDS011;10650;51.528;6.748;2023-06-10T09:00:15;8.13;;;6.53;;
20982;SDS011;10650;51.528;6.748;2023-06-10T09:02:44;10.27;;;6.43;;
20982;SDS011;10650;51.528;6.748;2023-06-10T09:05:13;7.25;;;6.55;;
20982;SDS011;10650;51.528;6.748;2023-06-10T09:07:41;8.45;;;6.03;;
20982;SDS011;10650;51.528;6.748;2023-06-10T09:10:10;9.02;;;6.57;;
20982;SDS011;10650;51.528;6.748;2023-06-10T09:12:40;8.27;;;6.93;;
20982;SDS011;10650;51.528;6.748;2023-06-10T09:15:11;8.88;;;6.82;;
20982;SDS011;10650;51.528;6.748;2023-06-10T09:17:40;8.73;;;6.55;;
20982;SDS011;10650;51.528;6.748;2023-06-10T09:20:09;6.90;;;6.20;;
20982;SDS011;10650;51.528;6.748;2023-06-10T09:22:40;8.60;;;6.80;;
20982;SDS011;10650;51.528;6.748;2023-06-10T09:25:10;8.67;;;6.47;;
20982;SDS011;10650;51.528;6.748;2023-06-10T09:27:45;7.35;;;6.50;;
20982;SDS011;10650;51.528;6.748;2023-06-10T09:30:23;7.10;;;6.45;;
20982;SDS011;10650;51.528;6.748;2023-06-10T09:32:53;8.93;;;7.00;;
20982;SDS011;10650;51.528;6.748;2023-06-10T09:35:23;8.23;;;7.05;;
20982;SDS011;10650;51.528;6.748;2023-06-10T09:37:53;8.75;;;6.60;;
20982;SDS011;10650;51.528;6.748;2023-06-10T09:40:22;6.70;;;6.00;;
20982;SDS011;10650;51.528;6.748;2023-06-10T09:42:52;9.38;;;6.57;;
20982;SDS011;10650;51.528;6.748;2023-06-10T09:45:21;7.40;;;6.70;;
20982;SDS011;10650;51.528;6.748;2023-06-10T09:47:53;8.63;;;6.97;;
20982;SDS011;10650;51.528;6.748;2023-06-10T09:50:22;8.70;;;6.97;;
20982;SDS011;10650;51.528;6.748;2023-06-10T09:52:50;8.18;;;6.40;;
20982;SDS011;10650;51.528;6.748;2023-06-10T09:55:20;9.10;;;7.00;;
20982;SDS011;10650;51.528;6.748;2023-06-10T09:57:48;8.65;;;6.85;;
20982;SDS011;10650;51.528;6.748;2023-06-10T10:00:17;8.10;;;6.68;;
20982;SDS011;10650;51.528;6.748;2023-06-10T10:02:46;10.20;;;6.78;;
20982;SDS011;10650;51.528;6.748;2023-06-10T10:05:15;9.82;;;6.85;;
20982;SDS011;10650;51.528;6.748;2023-06-10T10:07:45;7.63;;;6.85;;
20982;SDS011;10650;51.528;6.748;2023-06-10T10:10:14;7.63;;;6.78;;
20982;SDS011;10650;51.528;6.748;2023-06-10T10:12:45;11.02;;;7.03;;
20982;SDS011;10650;51.528;6.748;2023-06-10T10:15:15;9.00;;;6.85;;
20982;SDS011;10650;51.528;6.748;2023-06-10T10:17:44;9.68;;;6.78;;
20982;SDS011;10650;51.528;6.748;2023-06-10T10:20:17;9.02;;;7.00;;
20982;SDS011;10650;51.528;6.748;2023-06-10T10:22:49;8.18;;;7.32;;
20982;SDS011;10650;51.528;6.748;2023-06-10T10:25:23;7.43;;;6.82;;
20982;SDS011;10650;51.528;6.748;2023-06-10T10:27:54;8.45;;;7.18;;
20982;SDS011;10650;51.528;6.748;2023-06-10T10:30:26;8.45;;;6.95;;
20982;SDS011;10650;51.528;6.748;2023-06-10T10:32:58;7.78;;;7.00;;
20982;SDS011;10650;51.528;6.748;2023-06-10T10:35:35;12.82;;;7.15;;
20982;SDS011;10650;51.528;6.748;2023-06-10T10:38:04;8.30;;;7.35;;
20982;SDS011;10650;51.528;6.748;2023-06-10T10:40:33;8.02;;;7.22;;
20982;SDS011;10650;51.528;6.748;2023-06-10T10:43:03;7.53;;;6.78;;
20982;SDS011;10650;51.528;6.748;2023-06-10T10:45:33;8.57;;;6.82;;
20982;SDS011;10650;51.528;6.748;2023-06-10T10:48:05;8.27;;;6.85;;
20982;SDS011;10650;51.528;6.748;2023-06-10T10:50:37;7.10;;;6.43;;
20982;SDS011;10650;51.528;6.748;2023-06-10T10:53:07;7.20;;;6.43;;
20982;SDS011;10650;51.528;6.748;2023-06-10T10:55:35;7.93;;;6.60;;
20982;SDS011;10650;51.528;6.748;2023-06-10T10:58:05;7.55;;;6.60;;
20982;SDS011;10650;51.528;6.748;2023-06-10T11:00:34;7.65;;;6.85;;
20982;SDS011;10650;51.528;6.748;2023-06-10T11:03:06;9.05;;;7.30;;
20982;SDS011;10650;51.528;6.748;2023-06-10T11:05:38;12.68;;;7.70;;
20982;SDS011;10650;51.528;6.748;2023-06-10T11:08:08;8.30;;;6.78;;
20982;SDS011;10650;51.528;6.748;2023-06-10T11:10:36;7.60;;;6.75;;
20982;SDS011;10650;51.528;6.748;2023-06-10T11:13:07;8.07;;;7.28;;
20982;SDS011;10650;51.528;6.748;2023-06-10T11:15:39;9.30;;;7.23;;
20982;SDS011;10650;51.528;6.748;2023-06-10T11:18:11;7.82;;;6.75;;
20982;SDS011;10650;51.528;6.748;2023-06-10T11:20:56;10.65;;;6.93;;
20982;SDS011;10650;51.528;6.748;2023-06-10T11:23:29;7.55;;;6.85;;
20982;SDS011;10650;51.528;6.748;2023-06-10T11:26:15;8.77;;;6.90;;
20982;SDS011;10650;51.528;6.748;2023-06-10T11:29:06;7.35;;;6.65;;
20982;SDS011;10650;51.528;6.748;2023-06-10T11:31:41;8.85;;;7.10;;
20982;SDS011;10650;51.528;6.748;2023-06-10T11:34:11;7.93;;;7.32;;
20982;SDS011;10650;51.528;6.748;2023-06-10T11:36:40;7.50;;;6.78;;
20982;SDS011;10650;51.528;6.748;2023-06-10T11:39:12;7.90;;;6.80;;
20982;SDS011;10650;51.528;6.748;2023-06-10T11:41:40;8.98;;;6.88;;
20982;SDS011;10650;51.528;6.748;2023-06-10T11:44:10;7.43;;;6.72;;
20982;SDS011;10650;51.528;6.748;2023-06-10T11:46:44;7.82;;;6.82;;
20982;SDS011;10650;51.528;6.748;2023-06-10T11:49:14;7.57;;;6.75;;
20982;SDS011;10650;51.528;6.748;2023-06-10T11:51:42;7.32;;;6.55;;
20982;SDS011;10650;51.528;6.748;2023-06-10T11:54:16;9.32;;;6.85;;
20982;SDS011;10650;51.528;6.748;2023-06-10T11:56:44;7.97;;;7.03;;
20982;SDS011;10650;51.528;6.748;2023-06-10T11:59:14;9.10;;;7.25;;
20982;SDS011;10650;51.528;6.748;2023-06-10T12:01:43;7.55;;;6.88;;
20982;SDS011;10650;51.528;6.748;2023-06-10T12:04:12;7.63;;;6.93;;
20982;SDS011;10650;51.528;6.748;2023-06-10T12:06:42;8.18;;;7.18;;
20982;SDS011;10650;51.528;6.748;2023-06-10T12:09:17;7.55;;;6.53;;
20982;SDS011;10650;51.528;6.748;2023-06-10T12:11:49;8.88;;;6.47;;
20982;SDS011;10650;51.528;6.748;2023-06-10T12:17:22;8.15;;;7.00;;
20982;SDS011;10650;51.528;6.748;2023-06-10T12:19:51;7.53;;;6.82;;
20982;SDS011;10650;51.528;6.748;2023-06-10T12:22:18;7.97;;;6.63;;
20982;SDS011;10650;51.528;6.748;2023-06-10T12:24:57;7.93;;;7.22;;
20982;SDS011;10650;51.528;6.748;2023-06-10T12:27:27;7.90;;;7.10;;
20982;SDS011;10650;51.528;6.748;2023-06-10T12:29:58;7.60;;;6.90;;
20982;SDS011;10650;51.528;6.748;2023-06-10T12:32:36;8.02;;;6.85;;
20982;SDS011;10650;51.528;6.748;2023-06-10T12:35:07;8.25;;;7.25;;
20982;SDS011;10650;51.528;6.748;2023-06-10T12:37:37;8.05;;;7.22;;
20982;SDS011;10650;51.528;6.748;2023-06-10T12:40:09;7.50;;;6.72;;
20982;SDS011;10650;51.528;6.748;2023-06-10T12:42:38;9.55;;;7.53;;
20982;SDS011;10650;51.528;6.748;2023-06-10T12:45:08;7.70;;;7.10;;
20982;SDS011;10650;51.528;6.748;2023-06-10T12:47:37;7.97;;;7.17;;
20982;SDS011;10650;51.528;6.748;2023-06-10T12:50:06;7.63;;;6.93;;
20982;SDS011;10650;51.528;6.748;2023-06-10T12:52:35;7.72;;;6.90;;
20982;SDS011;10650;51.528;6.748;2023-06-10T12:55:03;7.85;;;7.15;;
20982;SDS011;10650;51.528;6.748;2023-06-10T12:57:32;7.55;;;6.38;;
20982;SDS011;10650;51.528;6.748;2023-06-10T13:00:00;7.60;;;6.80;;
20982;SDS011;10650;51.528;6.748;2023-06-10T13:02:32;8.43;;;7.00;;
20982;SDS011;10650;51.528;6.748;2023-06-10T13:05:01;9.95;;;7.68;;
20982;SDS011;10650;51.528;6.748;2023-06-10T13:07:29;7.47;;;6.78;;
20982;SDS011;10650;51.528;6.748;2023-06-10T13:09:57;8.43;;;7.63;;
20982;SDS011;10650;51.528;6.748;2023-06-10T13:12:25;8.38;;;6.88;;
20982;SDS011;10650;51.528;6.748;2023-06-10T13:15:13;7.93;;;6.78;;
20982;SDS011;10650;51.528;6.748;2023-06-10T13:17:43;7.80;;;7.10;;
20982;SDS011;10650;51.528;6.748;2023-06-10T13:20:12;7.65;;;6.90;;
20982;SDS011;10650;51.528;6.748;2023-06-10T13:22:40;9.07;;;7.18;;
20982;SDS011;10650;51.528;6.748;2023-06-10T13:25:08;7.88;;;7.10;;
20982;SDS011;10650;51.528;6.748;2023-06-10T13:27:37;9.25;;;7.40;;
20982;SDS011;10650;51.528;6.748;2023-06-10T13:30:06;7.93;;;7.13;;
20982;SDS011;10650;51.528;6.748;2023-06-10T13:32:36;7.57;;;6.97;;
20982;SDS011;10650;51.528;6.748;2023-06-10T13:35:05;7.88;;;7.05;;
20982;SDS011;10650;51.528;6.748;2023-06-10T13:37:35;8.00;;;7.30;;
20982;SDS011;10650;51.528;6.748;2023-06-10T13:40:03;8.45;;;7.50;;
20982;SDS011;10650;51.528;6.748;2023-06-10T13:42:34;9.35;;;7.18;;
20982;SDS011;10650;51.528;6.748;2023-06-10T13:45:02;9.68;;;7.57;;
20982;SDS011;10650;51.528;6.748;2023-06-10T13:47:30;7.85;;;7.15;;
20982;SDS011;10650;51.528;6.748;2023-06-10T13:49:58;8.73;;;7.40;;
20982;SDS011;10650;51.528;6.748;2023-06-10T13:52:28;7.90;;;7.20;;
20982;SDS011;10650;51.528;6.748;2023-06-10T13:54:56;7.95;;;7.25;;
20982;SDS011;10650;51.528;6.748;2023-06-10T13:57:24;8.27;;;7.45;;
20982;SDS011;10650;51.528;6.748;2023-06-10T13:59:51;8.75;;;7.75;;
20982;SDS011;10650;51.528;6.748;2023-06-10T14:02:19;8.13;;;7.32;;
20982;SDS011;10650;51.528;6.748;2023-06-10T14:04:47;8.65;;;7.80;;
20982;SDS011;10650;51.528;6.748;2023-06-10T14:07:15;7.97;;;7.07;;
20982;SDS011;10650;51.528;6.748;2023-06-10T14:09:44;7.72;;;7.03;;
20982;SDS011;10650;51.528;6.748;2023-06-10T14:12:12;7.80;;;7.00;;
20982;SDS011;10650;51.528;6.748;2023-06-10T14:14:40;7.82;;;7.20;;
20982;SDS011;10650;51.528;6.748;2023-06-10T14:21:04;7.90;;;7.10;;
20982;SDS011;10650;51.528;6.748;2023-06-10T14:24:07;8.45;;;7.50;;
20982;SDS011;10650;51.528;6.748;2023-06-10T14:26:40;7.72;;;6.80;;
20982;SDS011;10650;51.528;6.748;2023-06-10T14:29:13;9.77;;;7.75;;
20982;SDS011;10650;51.528;6.748;2023-06-10T14:32:05;7.80;;;7.20;;
20982;SDS011;10650;51.528;6.748;2023-06-10T14:34:36;7.55;;;6.65;;
20982;SDS011;10650;51.528;6.748;2023-06-10T14:37:05;7.22;;;6.63;;
20982;SDS011;10650;51.528;6.748;2023-06-10T14:39:34;8.20;;;7.25;;
20982;SDS011;10650;51.528;6.748;2023-06-10T14:42:06;7.43;;;6.72;;
20982;SDS011;10650;51.528;6.748;2023-06-10T14:44:45;9.52;;;7.53;;
20982;SDS011;10650;51.528;6.748;2023-06-10T14:50:55;7.45;;;6.75;;
20982;SDS011;10650;51.528;6.748;2023-06-10T14:53:23;7.93;;;6.97;;
20982;SDS011;10650;51.528;6.748;2023-06-10T14:56:13;9.07;;;7.07;;
20982;SDS011;10650;51.528;6.748;2023-06-10T14:58:43;8.00;;;7.22;;
20982;SDS011;10650;51.528;6.748;2023-06-10T15:01:26;7.90;;;7.03;;
20982;SDS011;10650;51.528;6.748;2023-06-10T15:03:59;7.25;;;6.45;;
20982;SDS011;10650;51.528;6.748;2023-06-10T15:06:31;8.38;;;7.30;;
20982;SDS011;10650;51.528;6.748;2023-06-10T15:08:59;9.27;;;7.35;;
20982;SDS011;10650;51.528;6.748;2023-06-10T15:11:30;7.60;;;6.90;;